createdAt,value
2024-01-17T00:00:32.845Z,7.07
2024-01-17T00:02:59.672Z,6.63
2024-01-17T00:05:26.322Z,6.65
2024-01-17T00:07:53.359Z,6.40
2024-01-17T00:10:20.253Z,6.43
2024-01-17T00:12:46.897Z,6.35
2024-01-17T00:15:13.580Z,4.93
2024-01-17T00:17:40.516Z,4.82
2024-01-17T00:20:08.078Z,6.05
2024-01-17T00:22:34.653Z,5.68
2024-01-17T00:25:01.375Z,5.35
2024-01-17T00:27:28.028Z,4.53
2024-01-17T00:29:58.976Z,3.88
2024-01-17T00:32:26.067Z,4.22
2024-01-17T00:34:53.262Z,3.70
2024-01-17T00:37:19.973Z,4.43
2024-01-17T00:39:46.570Z,5.93
2024-01-17T00:42:13.159Z,5.90
2024-01-17T00:44:41.828Z,5.03
2024-01-17T00:47:08.642Z,5.60
2024-01-17T00:49:35.906Z,3.45
2024-01-17T00:52:02.522Z,4.78
2024-01-17T00:54:29.155Z,4.00
2024-01-17T00:56:55.758Z,4.45
2024-01-17T00:59:22.406Z,4.22
2024-01-17T01:01:49.035Z,3.75
2024-01-17T01:04:15.640Z,5.15
2024-01-17T01:06:42.245Z,4.80
2024-01-17T01:09:08.913Z,5.25
2024-01-17T01:11:37.181Z,5.18
2024-01-17T01:14:04.203Z,4.90
2024-01-17T01:16:30.878Z,4.35
2024-01-17T01:18:57.673Z,5.28
2024-01-17T01:21:24.395Z,4.80
2024-01-17T01:23:51.195Z,4.35
2024-01-17T01:26:17.844Z,4.40
2024-01-17T01:28:44.548Z,4.30
2024-01-17T01:31:11.275Z,5.28
2024-01-17T01:33:38.205Z,7.13
2024-01-17T01:36:07.171Z,7.32
2024-01-17T01:38:34.140Z,6.97
2024-01-17T01:41:00.804Z,8.10
2024-01-17T01:43:27.412Z,6.88
2024-01-17T01:46:16.650Z,7.35
2024-01-17T01:48:44.566Z,8.63
2024-01-17T01:51:14.601Z,7.43
2024-01-17T01:53:43.939Z,6.60
2024-01-17T01:56:13.949Z,7.40
2024-01-17T01:58:44.527Z,7.72
2024-01-17T02:01:12.514Z,7.18
2024-01-17T02:03:42.285Z,6.50
2024-01-17T02:06:09.235Z,5.78
2024-01-17T02:08:36.076Z,5.97
2024-01-17T02:11:02.802Z,5.10
2024-01-17T02:13:29.533Z,6.30
2024-01-17T02:15:56.730Z,6.60
2024-01-17T02:18:23.815Z,7.10
2024-01-17T02:20:50.459Z,6.88
2024-01-17T02:23:29.688Z,5.57
2024-01-17T02:25:58.308Z,5.82
2024-01-17T02:28:27.070Z,5.82
2024-01-17T02:30:53.928Z,4.97
2024-01-17T02:33:21.217Z,5.70
2024-01-17T02:35:47.974Z,5.18
2024-01-17T02:38:14.595Z,4.95
2024-01-17T02:40:41.178Z,5.45
2024-01-17T02:43:07.832Z,5.10
2024-01-17T02:45:34.721Z,4.30
2024-01-17T02:48:01.694Z,4.53
2024-01-17T02:50:29.036Z,5.63
2024-01-17T02:52:55.634Z,4.15
2024-01-17T02:55:24.329Z,4.97
2024-01-17T02:57:52.259Z,4.90
2024-01-17T03:00:19.552Z,4.47
2024-01-17T03:02:46.455Z,5.05
2024-01-17T03:05:13.114Z,5.57
2024-01-17T03:07:39.913Z,5.40
2024-01-17T03:10:08.364Z,4.97
2024-01-17T03:12:34.940Z,4.32
2024-01-17T03:15:01.761Z,5.68
2024-01-17T03:17:28.558Z,5.40
2024-01-17T03:19:55.325Z,5.13
2024-01-17T03:22:21.936Z,5.43
2024-01-17T03:24:48.578Z,5.50
2024-01-17T03:27:15.246Z,7.50
2024-01-17T03:29:41.903Z,5.45
2024-01-17T03:32:08.826Z,7.15
2024-01-17T03:34:35.716Z,6.00
2024-01-17T03:37:04.938Z,5.57
2024-01-17T03:39:34.763Z,7.45
2024-01-17T03:42:01.835Z,6.18
2024-01-17T03:44:28.606Z,5.82
2024-01-17T03:46:55.244Z,6.10
2024-01-17T03:49:21.918Z,5.75
2024-01-17T03:51:48.536Z,6.82
2024-01-17T03:54:15.197Z,5.88
2024-01-17T03:56:41.818Z,8.40
2024-01-17T03:59:08.409Z,7.47
2024-01-17T04:01:42.756Z,7.97
2024-01-17T04:04:09.322Z,9.38
2024-01-17T04:06:35.951Z,8.43
2024-01-17T04:09:02.684Z,8.05
2024-01-17T04:11:29.509Z,8.20
2024-01-17T04:13:56.999Z,7.85
2024-01-17T04:16:23.600Z,9.95
2024-01-17T04:18:50.486Z,9.02
2024-01-17T04:21:19.555Z,9.75
2024-01-17T04:23:48.417Z,7.55
2024-01-17T04:26:26.647Z,7.55
2024-01-17T04:28:54.206Z,8.52
2024-01-17T04:31:28.630Z,7.20
2024-01-17T04:33:56.125Z,7.88
2024-01-17T04:36:23.780Z,7.55
2024-01-17T04:38:50.392Z,6.55
2024-01-17T04:41:17.656Z,7.40
2024-01-17T04:43:47.741Z,7.47
2024-01-17T04:46:16.324Z,7.80
2024-01-17T04:48:44.141Z,7.82
2024-01-17T04:51:13.750Z,6.68
2024-01-17T04:53:43.505Z,8.15
2024-01-17T04:56:11.667Z,7.05
2024-01-17T04:58:38.594Z,6.93
2024-01-17T05:01:06.731Z,5.93
2024-01-17T05:03:34.996Z,9.82
2024-01-17T05:06:02.841Z,9.75
2024-01-17T05:08:30.570Z,9.18
2024-01-17T05:10:57.356Z,7.68
2024-01-17T05:13:24.070Z,10.38
2024-01-17T05:15:51.144Z,8.23
2024-01-17T05:18:17.842Z,8.43
2024-01-17T05:20:44.685Z,8.98
2024-01-17T05:23:11.601Z,7.90
2024-01-17T05:25:38.178Z,9.25
2024-01-17T05:28:07.326Z,9.60
2024-01-17T05:30:34.315Z,7.88
2024-01-17T05:33:01.773Z,8.40
2024-01-17T05:35:30.167Z,10.20
2024-01-17T05:37:57.014Z,9.10
2024-01-17T05:40:23.627Z,10.85
2024-01-17T05:42:50.784Z,8.23
2024-01-17T05:45:17.688Z,8.93
2024-01-17T05:47:44.965Z,9.57
2024-01-17T05:50:13.164Z,10.05
2024-01-17T05:52:41.334Z,8.77
2024-01-17T05:55:12.088Z,9.50
2024-01-17T05:57:39.285Z,7.80
2024-01-17T06:00:11.053Z,7.45
2024-01-17T06:02:39.178Z,7.95
2024-01-17T06:05:06.968Z,10.65
2024-01-17T06:07:33.609Z,7.80
2024-01-17T06:10:00.477Z,9.95
2024-01-17T06:12:27.218Z,11.98
2024-01-17T06:14:53.849Z,9.13
2024-01-17T06:17:20.869Z,12.02
2024-01-17T06:19:47.536Z,15.43
2024-01-17T06:22:19.835Z,14.25
2024-01-17T06:24:47.262Z,10.60
2024-01-17T06:27:15.375Z,12.93
2024-01-17T06:29:43.322Z,13.48
2024-01-17T06:32:10.059Z,10.00
2024-01-17T06:34:38.387Z,13.80
2024-01-17T06:37:05.975Z,12.13
2024-01-17T06:39:33.360Z,11.85
2024-01-17T06:42:00.242Z,13.52
2024-01-17T06:44:28.447Z,13.73
2024-01-17T06:46:55.177Z,13.10
2024-01-17T06:49:22.031Z,17.63
2024-01-17T06:51:48.922Z,14.30
2024-01-17T06:54:16.163Z,13.65
2024-01-17T06:56:42.926Z,11.93
2024-01-17T06:59:09.597Z,12.30
2024-01-17T07:01:36.795Z,12.85
2024-01-17T07:04:03.655Z,15.07
2024-01-17T07:06:30.468Z,10.90
2024-01-17T07:08:57.194Z,10.73
2024-01-17T07:11:23.818Z,7.50
2024-01-17T07:13:50.388Z,7.28
2024-01-17T07:16:17.172Z,8.05
2024-01-17T07:18:44.084Z,5.40
2024-01-17T07:21:11.452Z,7.40
2024-01-17T07:23:41.352Z,9.52
2024-01-17T07:26:09.982Z,7.03
2024-01-17T07:28:36.639Z,6.95
2024-01-17T07:31:03.832Z,6.07
2024-01-17T07:33:30.652Z,5.55
2024-01-17T07:35:57.401Z,4.38
2024-01-17T07:38:24.704Z,4.95
2024-01-17T07:40:51.572Z,3.30
2024-01-17T07:43:18.283Z,3.80
2024-01-17T07:45:44.914Z,3.45
2024-01-17T07:48:12.372Z,3.75
2024-01-17T07:50:40.453Z,3.92
2024-01-17T07:53:08.871Z,2.85
2024-01-17T07:55:35.551Z,2.50
2024-01-17T07:58:02.245Z,2.92
2024-01-17T08:00:30.072Z,2.58
2024-01-17T08:02:56.959Z,2.92
2024-01-17T08:05:23.689Z,2.47
2024-01-17T08:07:50.388Z,3.22
2024-01-17T08:10:17.916Z,3.08
2024-01-17T08:12:45.812Z,2.38
2024-01-17T08:15:12.645Z,18.48
2024-01-17T08:17:39.511Z,12.75
2024-01-17T08:20:08.326Z,7.93
2024-01-17T08:22:35.401Z,3.40
2024-01-17T08:25:02.420Z,1.48
2024-01-17T08:27:29.178Z,2.13
2024-01-17T08:29:56.298Z,3.60
2024-01-17T08:32:23.181Z,12.07
2024-01-17T08:34:49.959Z,22.60
2024-01-17T08:37:16.750Z,14.80
2024-01-17T08:39:44.788Z,14.75
2024-01-17T08:42:14.987Z,11.48
2024-01-17T08:44:44.063Z,16.42
2024-01-17T08:47:10.900Z,14.38
2024-01-17T08:49:41.288Z,16.33
2024-01-17T08:52:09.122Z,12.77
2024-01-17T08:54:38.605Z,11.40
2024-01-17T08:57:05.801Z,8.65
2024-01-17T08:59:35.027Z,9.73
2024-01-17T09:02:03.648Z,10.65
2024-01-17T09:04:31.049Z,8.23
2024-01-17T09:06:57.822Z,5.50
2024-01-17T09:09:26.947Z,8.63
2024-01-17T09:11:54.674Z,6.43
2024-01-17T09:14:22.801Z,1.13
2024-01-17T09:16:51.524Z,2.13
2024-01-17T09:19:19.574Z,3.60
2024-01-17T09:21:46.305Z,3.30
2024-01-17T09:24:13.048Z,1.00
2024-01-17T09:26:40.101Z,4.50
2024-01-17T09:29:06.750Z,1.38
2024-01-17T09:31:33.340Z,0.90
2024-01-17T09:34:00.122Z,2.60
2024-01-17T09:36:27.050Z,1.58
2024-01-17T09:38:54.214Z,0.70
2024-01-17T09:41:21.173Z,0.60
2024-01-17T09:43:47.962Z,0.70
2024-01-17T09:46:15.529Z,0.50
2024-01-17T09:48:42.688Z,0.90
2024-01-17T09:51:17.706Z,0.60
2024-01-17T09:53:52.016Z,1.23
2024-01-17T09:56:20.284Z,0.60
2024-01-17T09:58:51.354Z,0.75
2024-01-17T10:01:19.939Z,0.80
2024-01-17T10:03:47.978Z,0.80
2024-01-17T10:06:17.237Z,0.50
2024-01-17T10:08:46.424Z,0.57
2024-01-17T10:11:13.619Z,0.57
2024-01-17T10:13:40.227Z,0.88
2024-01-17T10:16:06.888Z,0.50
2024-01-17T10:18:34.212Z,0.80
2024-01-17T10:21:01.194Z,0.82
2024-01-17T10:23:27.902Z,0.50
2024-01-17T10:25:54.584Z,2.17
2024-01-17T10:28:21.187Z,5.65
2024-01-17T10:30:47.936Z,7.25
2024-01-17T10:33:14.743Z,13.52
2024-01-17T10:35:42.189Z,7.18
2024-01-17T10:38:09.566Z,9.32
2024-01-17T10:40:36.200Z,8.40
2024-01-17T10:43:10.631Z,11.25
2024-01-17T10:45:40.554Z,8.77
2024-01-17T10:48:10.972Z,19.55
2024-01-17T10:50:37.933Z,1.70
2024-01-17T10:53:06.733Z,4.85
2024-01-17T10:55:38.073Z,2.47
2024-01-17T10:58:12.179Z,4.22
2024-01-17T11:00:42.022Z,2.20
2024-01-17T11:03:10.795Z,2.20
2024-01-17T11:05:50.465Z,6.03
2024-01-17T11:08:20.063Z,2.75
2024-01-17T11:10:48.025Z,2.33
2024-01-17T11:13:20.265Z,2.65
2024-01-17T11:15:49.520Z,2.88
2024-01-17T11:18:17.422Z,2.38
2024-01-17T11:20:45.132Z,2.42
2024-01-17T11:23:24.166Z,1.83
2024-01-17T11:26:29.966Z,1.90
2024-01-17T11:29:14.533Z,1.80
2024-01-17T11:32:00.603Z,1.38
2024-01-17T11:34:27.432Z,1.60
2024-01-17T11:36:54.300Z,1.52
2024-01-17T11:39:21.175Z,1.42
2024-01-17T11:41:51.207Z,1.70
2024-01-17T11:44:19.640Z,1.77
2024-01-17T11:46:50.670Z,2.00
2024-01-17T11:49:37.986Z,2.38
2024-01-17T11:52:08.803Z,1.55
2024-01-17T11:54:35.484Z,1.77
2024-01-17T11:57:04.701Z,1.70
2024-01-17T11:59:33.973Z,1.70
2024-01-17T12:02:00.732Z,1.50
2024-01-17T12:04:27.352Z,1.50
2024-01-17T12:06:54.159Z,1.60
2024-01-17T12:09:24.132Z,1.45
2024-01-17T12:11:53.622Z,1.73
2024-01-17T12:14:20.589Z,1.67
2024-01-17T12:16:48.018Z,1.65
2024-01-17T12:19:16.237Z,1.40
2024-01-17T12:21:43.609Z,1.48
2024-01-17T12:24:14.096Z,1.42
2024-01-17T12:26:40.852Z,1.83
2024-01-17T12:29:08.437Z,1.75
2024-01-17T12:31:35.380Z,1.25
2024-01-17T12:34:03.150Z,1.30
2024-01-17T12:36:31.981Z,1.30
2024-01-17T12:39:03.815Z,1.25
2024-01-17T12:41:30.426Z,1.40
2024-01-17T12:43:57.308Z,1.27
2024-01-17T12:46:24.274Z,1.00
2024-01-17T12:49:00.147Z,1.38
2024-01-17T12:51:28.079Z,0.90
2024-01-17T12:53:55.616Z,1.55
2024-01-17T12:56:25.461Z,1.15
2024-01-17T12:58:53.690Z,1.70
2024-01-17T13:01:26.369Z,1.20
2024-01-17T13:04:09.307Z,1.48
2024-01-17T13:06:50.204Z,3.85
2024-01-17T13:09:22.013Z,1.20
2024-01-17T13:11:53.377Z,2.25
2024-01-17T13:14:22.625Z,1.20
2024-01-17T13:16:49.476Z,1.20
2024-01-17T13:19:16.793Z,1.60
2024-01-17T13:21:51.460Z,1.63
2024-01-17T13:24:18.481Z,1.17
2024-01-17T13:26:45.702Z,1.02
2024-01-17T13:29:14.188Z,1.30
2024-01-17T13:31:42.483Z,1.50
2024-01-17T13:34:10.566Z,1.30
2024-01-17T13:36:37.508Z,1.27
2024-01-17T13:39:06.291Z,1.70
2024-01-17T13:41:34.890Z,1.20
2024-01-17T13:44:01.956Z,1.13
2024-01-17T13:46:28.743Z,1.30
2024-01-17T13:48:55.672Z,1.50
2024-01-17T13:51:25.627Z,1.67
2024-01-17T13:53:55.110Z,1.20
2024-01-17T13:56:22.230Z,1.27
2024-01-17T13:58:48.990Z,1.92
2024-01-17T14:01:20.160Z,1.35
2024-01-17T14:03:48.382Z,1.30
2024-01-17T14:06:15.898Z,1.20
2024-01-17T14:08:43.050Z,1.38
2024-01-17T14:11:14.308Z,1.15
2024-01-17T14:13:43.550Z,1.42
2024-01-17T14:16:11.998Z,1.40
2024-01-17T14:18:38.976Z,1.50
2024-01-17T14:21:06.469Z,1.40
2024-01-17T14:23:33.139Z,1.10
2024-01-17T14:25:59.720Z,1.27
2024-01-17T14:28:26.288Z,1.17
2024-01-17T14:30:52.933Z,1.38
2024-01-17T14:33:21.584Z,1.02
2024-01-17T14:35:48.838Z,1.13
2024-01-17T14:38:15.556Z,1.13
2024-01-17T14:40:42.550Z,1.15
2024-01-17T14:43:09.134Z,1.20
2024-01-17T14:45:35.753Z,1.13
2024-01-17T14:48:02.874Z,1.27
2024-01-17T14:50:29.538Z,1.30
2024-01-17T14:52:56.154Z,0.80
2024-01-17T14:55:22.839Z,1.30
2024-01-17T14:57:50.442Z,1.20
2024-01-17T15:00:21.442Z,1.33
2024-01-17T15:02:49.642Z,2.97
2024-01-17T15:05:17.915Z,1.80
2024-01-17T15:07:45.210Z,1.13
2024-01-17T15:10:12.151Z,1.20
2024-01-17T15:12:39.210Z,1.20
2024-01-17T15:15:08.077Z,3.95
2024-01-17T15:17:34.942Z,1.48
2024-01-17T15:20:01.724Z,1.52
2024-01-17T15:22:31.097Z,1.40
2024-01-17T15:24:58.109Z,1.48
2024-01-17T15:27:24.835Z,1.60
2024-01-17T15:29:52.889Z,1.00
2024-01-17T15:32:19.734Z,1.20
2024-01-17T15:34:46.573Z,1.10
2024-01-17T15:37:13.265Z,1.17
2024-01-17T15:39:40.184Z,2.33
2024-01-17T15:42:07.482Z,1.30
2024-01-17T15:44:34.637Z,1.10
2024-01-17T15:47:02.424Z,1.20
2024-01-17T15:49:29.592Z,1.30
2024-01-17T15:51:56.461Z,1.30
2024-01-17T15:54:23.171Z,3.22
2024-01-17T15:56:49.772Z,1.10
2024-01-17T15:59:16.373Z,2.47
2024-01-17T16:01:42.958Z,1.10
2024-01-17T16:04:11.906Z,0.90
2024-01-17T16:06:39.600Z,1.23
2024-01-17T16:09:12.214Z,0.90
2024-01-17T16:11:39.068Z,1.42
2024-01-17T16:14:06.262Z,3.67
2024-01-17T16:16:32.927Z,3.67
2024-01-17T16:18:59.840Z,1.02
2024-01-17T16:21:26.788Z,3.60
2024-01-17T16:23:55.166Z,1.00
2024-01-17T16:26:21.984Z,1.15
2024-01-17T16:28:49.255Z,1.10
2024-01-17T16:31:15.880Z,1.30
2024-01-17T16:33:42.720Z,1.20
2024-01-17T16:36:09.582Z,2.00
2024-01-17T16:38:36.457Z,1.75
2024-01-17T16:41:03.169Z,1.60
2024-01-17T16:43:29.838Z,1.10
2024-01-17T16:45:58.437Z,1.35
2024-01-17T16:48:25.472Z,1.25
2024-01-17T16:50:52.403Z,0.98
2024-01-17T16:53:19.098Z,1.30
2024-01-17T16:55:45.745Z,1.30
2024-01-17T16:58:12.369Z,1.88
2024-01-17T17:00:39.193Z,0.98
2024-01-17T17:03:06.043Z,1.33
2024-01-17T17:05:32.947Z,1.23
2024-01-17T17:08:00.532Z,0.93
2024-01-17T17:10:27.650Z,1.10
2024-01-17T17:12:54.521Z,0.90
2024-01-17T17:15:21.306Z,0.93
2024-01-17T17:17:48.029Z,0.80
2024-01-17T17:20:14.848Z,0.70
2024-01-17T17:22:43.883Z,0.70
2024-01-17T17:25:11.525Z,0.85
2024-01-17T17:27:38.265Z,0.60
2024-01-17T17:30:05.633Z,0.90
2024-01-17T17:32:32.443Z,1.00
2024-01-17T17:34:59.334Z,0.82
2024-01-17T17:37:27.124Z,0.70
2024-01-17T17:39:53.864Z,0.95
2024-01-17T17:42:20.596Z,0.60
2024-01-17T17:44:47.286Z,0.60
2024-01-17T17:47:14.715Z,0.50
2024-01-17T17:49:42.551Z,0.45
2024-01-17T17:52:09.734Z,0.45
2024-01-17T17:54:36.422Z,0.35
2024-01-17T17:57:03.620Z,0.65
2024-01-17T17:59:30.269Z,0.50
2024-01-17T18:01:57.241Z,0.28
2024-01-17T18:04:27.632Z,1.50
2024-01-17T18:06:54.970Z,0.63
2024-01-17T18:09:22.193Z,0.60
2024-01-17T18:11:49.078Z,0.73
2024-01-17T18:14:15.984Z,2.47
2024-01-17T18:16:42.552Z,0.50
2024-01-17T18:19:09.360Z,0.50
2024-01-17T18:21:38.511Z,1.25
2024-01-17T18:24:05.481Z,0.57
2024-01-17T18:26:32.596Z,0.52
2024-01-17T18:28:59.242Z,0.55
2024-01-17T18:31:25.931Z,0.30
2024-01-17T18:33:52.664Z,0.40
2024-01-17T18:36:19.452Z,0.50
2024-01-17T18:38:46.101Z,0.75
2024-01-17T18:41:13.378Z,0.77
2024-01-17T18:43:40.954Z,0.82
2024-01-17T18:46:08.542Z,0.63
2024-01-17T18:48:36.399Z,0.50
2024-01-17T18:51:03.651Z,0.50
2024-01-17T18:53:30.423Z,0.60
2024-01-17T18:55:57.080Z,0.30
2024-01-17T18:58:23.727Z,0.40
2024-01-17T19:00:50.478Z,0.40
2024-01-17T19:03:17.485Z,0.40
2024-01-17T19:05:44.358Z,0.20
2024-01-17T19:08:11.202Z,0.50
2024-01-17T19:10:37.906Z,0.55
2024-01-17T19:13:04.603Z,0.60
2024-01-17T19:15:31.288Z,0.40
2024-01-17T19:17:58.068Z,0.50
2024-01-17T19:20:24.832Z,0.57
2024-01-17T19:22:51.409Z,0.40
2024-01-17T19:25:20.051Z,0.22
2024-01-17T19:27:47.588Z,0.57
2024-01-17T19:30:17.007Z,0.22
2024-01-17T19:32:44.686Z,0.30
2024-01-17T19:35:15.075Z,0.30
2024-01-17T19:37:43.880Z,0.30
2024-01-17T19:40:12.207Z,0.75
2024-01-17T19:42:39.887Z,0.60
2024-01-17T19:45:07.489Z,0.30
2024-01-17T19:47:34.851Z,0.43
2024-01-17T19:50:02.287Z,0.30
2024-01-17T19:52:30.400Z,0.13
2024-01-17T19:54:57.063Z,0.10
2024-01-17T19:57:24.610Z,0.32
2024-01-17T19:59:51.975Z,0.38
2024-01-17T20:02:19.219Z,1.55
2024-01-17T20:04:46.039Z,0.30
2024-01-17T20:07:13.388Z,0.10
2024-01-17T20:09:43.385Z,0.38
2024-01-17T20:12:11.328Z,0.20
2024-01-17T20:14:38.209Z,0.30
2024-01-17T20:17:05.248Z,0.20
2024-01-17T20:19:32.724Z,0.20
2024-01-17T20:21:59.766Z,0.10
2024-01-17T20:24:26.834Z,0.10
2024-01-17T20:26:53.830Z,0.47
2024-01-17T20:29:20.799Z,0.13
2024-01-17T20:31:49.121Z,0.10
2024-01-17T20:34:15.921Z,0.20
2024-01-17T20:36:42.536Z,0.50
2024-01-17T20:39:12.036Z,0.32
2024-01-17T20:41:39.377Z,0.20
2024-01-17T20:44:06.227Z,0.30
2024-01-17T20:46:33.099Z,0.20
2024-01-17T20:49:02.382Z,0.28
2024-01-17T20:51:31.935Z,0.10
2024-01-17T20:53:58.816Z,0.47
2024-01-17T20:56:25.478Z,0.10
2024-01-17T20:58:54.904Z,0.20
2024-01-17T21:01:23.003Z,0.40
2024-01-17T21:03:50.147Z,0.22
2024-01-17T21:06:16.762Z,1.15
2024-01-17T21:08:43.657Z,0.30
2024-01-17T21:11:10.303Z,0.38
2024-01-17T21:13:36.870Z,0.15
2024-01-17T21:16:03.527Z,0.15
2024-01-17T21:18:30.260Z,0.52
2024-01-17T21:20:57.482Z,0.43
2024-01-17T21:23:28.171Z,0.20
2024-01-17T21:25:54.884Z,0.10
2024-01-17T21:28:21.601Z,0.20
2024-01-17T21:30:48.222Z,0.10
2024-01-17T21:33:15.022Z,0.20
2024-01-17T21:35:41.659Z,0.20
2024-01-17T21:38:08.256Z,0.22
2024-01-17T21:40:36.933Z,0.20
2024-01-17T21:43:03.702Z,0.10
2024-01-17T21:45:30.344Z,0.00
2024-01-17T21:47:57.422Z,0.10
2024-01-17T21:50:24.145Z,0.20
2024-01-17T21:52:50.978Z,0.00
2024-01-17T21:55:17.531Z,0.15
2024-01-17T21:57:44.117Z,0.00
2024-01-17T22:00:11.197Z,0.10
2024-01-17T22:02:40.746Z,0.10
2024-01-17T22:05:07.386Z,0.10
2024-01-17T22:07:34.352Z,0.10
2024-01-17T22:10:02.659Z,0.20
2024-01-17T22:12:29.277Z,0.40
2024-01-17T22:14:55.994Z,0.20
2024-01-17T22:17:22.704Z,0.30
2024-01-17T22:19:50.256Z,0.10
2024-01-17T22:22:16.862Z,0.20
2024-01-17T22:24:43.438Z,0.15
2024-01-17T22:27:10.098Z,0.20
2024-01-17T22:29:37.357Z,0.20
2024-01-17T22:32:04.077Z,0.10
2024-01-17T22:34:30.873Z,0.10
2024-01-17T22:36:57.572Z,0.20
2024-01-17T22:39:24.389Z,0.30
2024-01-17T22:41:51.051Z,0.30
2024-01-17T22:44:19.134Z,0.30
2024-01-17T22:46:45.753Z,0.40
2024-01-17T22:49:12.422Z,0.38
2024-01-17T22:51:39.069Z,0.20
2024-01-17T22:54:06.072Z,0.20
2024-01-17T22:56:33.803Z,0.30
2024-01-17T22:59:00.473Z,0.30
2024-01-17T23:01:27.301Z,0.38
2024-01-17T23:03:54.083Z,0.30
2024-01-17T23:06:20.878Z,0.22
2024-01-17T23:08:47.478Z,0.40
2024-01-17T23:11:23.555Z,0.30
2024-01-17T23:13:55.123Z,0.50
2024-01-17T23:16:21.937Z,0.63
2024-01-17T23:18:49.166Z,0.30
2024-01-17T23:21:16.051Z,0.22
2024-01-17T23:23:42.662Z,0.30
2024-01-17T23:26:10.895Z,0.40
2024-01-17T23:28:38.030Z,0.50
2024-01-17T23:31:05.737Z,0.35
2024-01-17T23:33:32.468Z,0.30
2024-01-17T23:36:00.056Z,0.50
2024-01-17T23:38:26.693Z,0.38
2024-01-17T23:40:53.288Z,0.47
2024-01-17T23:43:19.877Z,0.40
2024-01-17T23:45:46.502Z,0.50
2024-01-17T23:48:13.262Z,0.70
2024-01-17T23:50:40.065Z,0.60
2024-01-17T23:53:06.652Z,0.30
2024-01-17T23:55:33.228Z,0.60
2024-01-17T23:57:59.803Z,0.30
